createdAt,value
2019-03-20T00:01:23.428Z,8.23
2019-03-20T00:03:53.128Z,16.90
2019-03-20T00:06:22.760Z,11.67
2019-03-20T00:08:52.398Z,9.63
2019-03-20T00:11:21.994Z,8.73
2019-03-20T00:13:51.669Z,8.77
2019-03-20T00:16:21.280Z,10.87
2019-03-20T00:18:51.945Z,11.73
2019-03-20T00:21:21.553Z,10.27
2019-03-20T00:23:51.151Z,17.20
2019-03-20T00:26:20.744Z,9.13
2019-03-20T00:28:50.367Z,11.50
2019-03-20T00:31:19.985Z,13.63
2019-03-20T00:33:49.581Z,12.83
2019-03-20T00:36:19.206Z,12.27
2019-03-20T00:38:48.830Z,13.20
2019-03-20T00:41:18.458Z,17.50
2019-03-20T00:43:48.099Z,15.33
2019-03-20T00:46:17.710Z,15.30
2019-03-20T00:48:47.314Z,12.53
2019-03-20T00:51:17.037Z,13.97
2019-03-20T00:53:46.903Z,20.97
2019-03-20T00:56:16.617Z,17.90
2019-03-20T00:58:46.218Z,22.47
2019-03-20T01:01:16.231Z,14.03
2019-03-20T01:03:45.849Z,18.73
2019-03-20T01:06:15.491Z,18.30
2019-03-20T01:08:45.170Z,18.13
2019-03-20T01:11:14.791Z,13.03
2019-03-20T01:13:44.404Z,18.13
2019-03-20T01:16:14.039Z,17.87
2019-03-20T01:18:43.645Z,21.70
2019-03-20T01:21:13.297Z,22.63
2019-03-20T01:23:43.982Z,22.50
2019-03-20T01:26:13.601Z,15.30
2019-03-20T01:28:44.190Z,20.93
2019-03-20T01:31:14.042Z,22.73
2019-03-20T01:33:43.750Z,21.10
2019-03-20T01:36:13.369Z,17.80
2019-03-20T01:38:42.980Z,18.30
2019-03-20T01:41:12.610Z,24.90
2019-03-20T01:43:42.269Z,21.27
2019-03-20T01:46:11.933Z,20.63
2019-03-20T01:48:41.722Z,19.37
2019-03-20T01:51:29.429Z,19.30
2019-03-20T01:53:59.126Z,27.37
2019-03-20T01:56:28.789Z,20.37
2019-03-20T01:58:58.416Z,19.60
2019-03-20T02:01:28.272Z,21.33
2019-03-20T02:03:57.896Z,22.27
2019-03-20T02:06:27.525Z,22.03
2019-03-20T02:08:57.125Z,21.27
2019-03-20T02:11:26.849Z,26.03
2019-03-20T02:13:57.429Z,35.27
2019-03-20T02:16:27.055Z,18.30
2019-03-20T02:18:56.651Z,20.47
2019-03-20T02:21:26.260Z,25.83
2019-03-20T02:23:55.869Z,27.47
2019-03-20T02:26:25.487Z,31.13
2019-03-20T02:28:55.118Z,23.80
2019-03-20T02:31:24.749Z,25.37
2019-03-20T02:33:54.372Z,23.73
2019-03-20T02:36:24.009Z,29.00
2019-03-20T02:38:53.646Z,26.83
2019-03-20T02:41:23.252Z,30.43
2019-03-20T02:43:52.935Z,33.63
2019-03-20T02:46:22.552Z,37.37
2019-03-20T02:48:52.170Z,29.70
2019-03-20T02:51:21.800Z,30.13
2019-03-20T02:53:51.415Z,32.00
2019-03-20T02:56:21.033Z,27.67
2019-03-20T02:58:50.714Z,34.83
2019-03-20T03:01:20.325Z,30.87
2019-03-20T03:03:49.955Z,30.47
2019-03-20T03:06:19.572Z,29.10
2019-03-20T03:08:49.186Z,35.97
2019-03-20T03:11:18.878Z,31.23
2019-03-20T03:13:48.500Z,37.30
2019-03-20T03:16:18.107Z,36.03
2019-03-20T03:18:47.710Z,34.50
2019-03-20T03:21:17.338Z,33.60
2019-03-20T03:23:46.950Z,36.83
2019-03-20T03:26:16.563Z,27.90
2019-03-20T03:28:47.242Z,34.30
2019-03-20T03:31:16.912Z,30.43
2019-03-20T03:33:46.646Z,30.83
2019-03-20T03:36:21.429Z,39.80
2019-03-20T03:38:48.669Z,47.77
2019-03-20T03:41:18.491Z,44.10
2019-03-20T03:43:48.083Z,43.00
2019-03-20T03:46:17.680Z,32.47
2019-03-20T03:48:47.376Z,47.70
2019-03-20T03:51:17.030Z,44.23
2019-03-20T03:53:46.739Z,41.17
2019-03-20T03:56:16.367Z,45.67
2019-03-20T03:58:45.988Z,45.60
2019-03-20T04:01:15.575Z,42.70
2019-03-20T04:03:45.370Z,38.33
2019-03-20T04:06:15.056Z,42.07
2019-03-20T04:08:44.671Z,30.00
2019-03-20T04:11:14.358Z,28.80
2019-03-20T04:13:43.975Z,32.17
2019-03-20T04:16:13.600Z,31.80
2019-03-20T04:18:43.316Z,25.97
2019-03-20T04:21:12.930Z,31.30
2019-03-20T04:23:42.555Z,30.00
2019-03-20T04:26:12.167Z,45.83
2019-03-20T04:28:41.969Z,42.87
2019-03-20T04:31:11.582Z,29.83
2019-03-20T04:33:41.259Z,32.07
2019-03-20T04:36:10.874Z,30.03
2019-03-20T04:38:40.502Z,37.73
2019-03-20T04:41:10.132Z,37.07
2019-03-20T04:43:39.747Z,33.90
2019-03-20T04:46:09.387Z,40.73
2019-03-20T04:48:39.022Z,29.67
2019-03-20T04:51:08.664Z,41.03
2019-03-20T04:53:38.358Z,28.77
2019-03-20T04:56:07.980Z,34.80
2019-03-20T04:58:37.582Z,40.07
2019-03-20T05:01:07.274Z,35.83
2019-03-20T05:03:36.915Z,33.33
2019-03-20T05:06:07.614Z,38.47
2019-03-20T05:08:37.253Z,31.97
2019-03-20T05:11:06.959Z,31.27
2019-03-20T05:13:36.572Z,42.77
2019-03-20T05:16:06.187Z,36.33
2019-03-20T05:18:35.790Z,38.43
2019-03-20T05:21:05.404Z,36.50
2019-03-20T05:23:35.051Z,35.27
2019-03-20T05:26:04.675Z,40.17
2019-03-20T05:28:34.279Z,30.67
2019-03-20T05:31:03.891Z,41.20
2019-03-20T05:33:33.527Z,33.90
2019-03-20T05:36:03.175Z,30.83
2019-03-20T05:38:32.799Z,31.40
2019-03-20T05:41:02.440Z,43.50
2019-03-20T05:43:32.054Z,45.23
2019-03-20T05:46:01.691Z,40.77
2019-03-20T05:48:31.322Z,33.23
2019-03-20T05:51:00.961Z,38.87
2019-03-20T05:53:30.569Z,35.57
2019-03-20T05:56:00.182Z,37.90
2019-03-20T05:58:29.822Z,31.67
2019-03-20T06:00:59.442Z,44.83
2019-03-20T06:03:29.065Z,47.40
2019-03-20T06:05:58.681Z,33.50
2019-03-20T06:08:28.298Z,36.57
2019-03-20T06:10:57.929Z,48.20
2019-03-20T06:13:27.536Z,38.70
2019-03-20T06:15:57.159Z,32.90
2019-03-20T06:18:26.797Z,38.80
2019-03-20T06:20:56.412Z,38.37
2019-03-20T06:23:26.277Z,38.90
2019-03-20T06:25:55.914Z,43.90
2019-03-20T06:28:25.527Z,50.13
2019-03-20T06:30:55.139Z,42.03
2019-03-20T06:33:24.759Z,29.93
2019-03-20T06:35:54.355Z,32.30
2019-03-20T06:38:23.985Z,27.27
2019-03-20T06:40:53.625Z,31.87
2019-03-20T06:43:23.229Z,41.63
2019-03-20T06:45:52.867Z,34.63
2019-03-20T06:48:22.487Z,28.27
2019-03-20T06:50:52.130Z,34.90
2019-03-20T06:53:21.743Z,31.13
2019-03-20T06:55:51.374Z,33.73
2019-03-20T06:58:20.985Z,29.13
2019-03-20T07:01:01.902Z,31.20
2019-03-20T07:03:38.909Z,35.77
2019-03-20T07:06:25.402Z,31.33
2019-03-20T07:09:18.375Z,28.37
2019-03-20T07:11:48.026Z,41.30
2019-03-20T07:14:17.650Z,32.90
2019-03-20T07:16:47.270Z,34.13
2019-03-20T07:19:16.881Z,20.47
2019-03-20T07:21:46.516Z,25.07
2019-03-20T07:24:16.177Z,27.23
2019-03-20T07:26:45.802Z,30.73
2019-03-20T07:29:15.437Z,16.27
2019-03-20T07:31:45.098Z,27.80
2019-03-20T07:34:14.720Z,24.63
2019-03-20T07:36:44.356Z,25.47
2019-03-20T07:39:14.002Z,19.17
2019-03-20T07:41:43.640Z,24.13
2019-03-20T07:44:13.253Z,25.97
2019-03-20T07:46:42.890Z,25.57
2019-03-20T07:49:12.560Z,20.23
2019-03-20T07:51:42.226Z,25.83
2019-03-20T07:54:11.856Z,32.27
2019-03-20T07:56:41.495Z,23.23
2019-03-20T07:59:11.093Z,22.53
2019-03-20T08:01:40.790Z,22.40
2019-03-20T08:04:10.430Z,17.87
2019-03-20T08:06:40.063Z,22.17
2019-03-20T08:09:09.664Z,22.67
2019-03-20T08:11:39.297Z,25.10
2019-03-20T08:14:08.910Z,26.97
2019-03-20T08:16:38.523Z,23.50
2019-03-20T08:19:27.395Z,25.57
2019-03-20T08:21:57.093Z,35.10
2019-03-20T08:24:26.729Z,21.77
2019-03-20T08:26:56.334Z,23.97
2019-03-20T08:29:25.958Z,28.13
2019-03-20T08:31:55.586Z,18.03
2019-03-20T08:34:25.206Z,25.87
2019-03-20T08:36:54.832Z,23.33
2019-03-20T08:39:24.440Z,26.07
2019-03-20T08:41:54.067Z,21.63
2019-03-20T08:44:23.748Z,29.77
2019-03-20T08:46:53.408Z,25.73
2019-03-20T08:49:24.098Z,26.10
2019-03-20T08:51:53.729Z,29.07
2019-03-20T08:54:23.390Z,26.63
2019-03-20T08:56:53.013Z,22.17
2019-03-20T08:59:22.619Z,17.63
2019-03-20T09:01:52.222Z,29.47
2019-03-20T09:04:21.850Z,22.30
2019-03-20T09:06:51.546Z,30.13
2019-03-20T09:09:21.167Z,19.47
2019-03-20T09:11:50.786Z,20.20
2019-03-20T09:14:20.454Z,17.40
2019-03-20T09:16:50.113Z,19.00
2019-03-20T09:19:19.734Z,22.43
2019-03-20T09:21:49.359Z,19.30
2019-03-20T09:24:18.987Z,16.70
2019-03-20T09:26:48.633Z,22.40
2019-03-20T09:29:19.012Z,20.23
2019-03-20T09:31:49.858Z,18.00
2019-03-20T09:34:19.490Z,21.53
2019-03-20T09:36:49.119Z,21.10
2019-03-20T09:39:18.714Z,23.80
2019-03-20T09:41:48.366Z,18.77
2019-03-20T09:44:17.971Z,20.23
2019-03-20T09:46:48.630Z,17.87
2019-03-20T09:49:18.258Z,25.77
2019-03-20T09:51:47.870Z,22.33
2019-03-20T09:54:17.486Z,25.27
2019-03-20T09:56:47.099Z,13.20
2019-03-20T09:59:16.711Z,23.37
2019-03-20T10:01:46.360Z,18.10
2019-03-20T10:04:15.978Z,19.03
2019-03-20T10:06:45.626Z,22.53
2019-03-20T10:09:15.249Z,35.10
2019-03-20T10:11:44.902Z,22.20
2019-03-20T10:14:14.509Z,17.67
2019-03-20T10:16:44.213Z,19.73
2019-03-20T10:19:13.842Z,23.50
2019-03-20T10:21:43.470Z,24.73
2019-03-20T10:24:13.104Z,21.13
2019-03-20T10:26:42.714Z,15.40
2019-03-20T10:29:12.347Z,20.23
2019-03-20T10:31:41.966Z,25.40
2019-03-20T10:34:11.606Z,29.83
2019-03-20T10:36:41.239Z,25.20
2019-03-20T10:39:10.989Z,20.47
2019-03-20T10:41:40.685Z,19.27
2019-03-20T10:44:10.310Z,27.93
2019-03-20T10:46:39.938Z,26.07
2019-03-20T10:49:09.571Z,34.43
2019-03-20T10:51:39.251Z,33.87
2019-03-20T10:54:08.880Z,26.03
2019-03-20T10:56:38.573Z,27.10
2019-03-20T10:59:08.220Z,25.17
2019-03-20T11:01:50.095Z,25.37
2019-03-20T11:04:19.723Z,28.13
2019-03-20T11:06:49.406Z,21.00
2019-03-20T11:09:19.041Z,20.20
2019-03-20T11:11:48.828Z,28.47
2019-03-20T11:14:18.446Z,21.63
2019-03-20T11:16:48.082Z,29.33
2019-03-20T11:19:17.746Z,22.63
2019-03-20T11:21:47.366Z,29.03
2019-03-20T11:24:17.028Z,25.47
2019-03-20T11:26:46.699Z,25.07
2019-03-20T11:29:21.510Z,28.63
2019-03-20T11:31:47.849Z,23.23
2019-03-20T11:34:17.495Z,23.17
2019-03-20T11:36:47.498Z,18.87
2019-03-20T11:39:17.290Z,22.73
2019-03-20T11:41:46.922Z,22.90
2019-03-20T11:44:16.605Z,16.57
2019-03-20T11:46:46.277Z,18.50
2019-03-20T11:49:16.978Z,17.43
2019-03-20T11:51:46.598Z,19.67
2019-03-20T11:54:16.230Z,16.33
2019-03-20T11:56:45.831Z,19.30
2019-03-20T11:59:15.502Z,23.50
2019-03-20T12:01:45.206Z,19.47
2019-03-20T12:04:14.823Z,14.70
2019-03-20T12:06:44.465Z,15.03
2019-03-20T12:09:14.098Z,17.40
2019-03-20T12:11:46.130Z,14.83
2019-03-20T12:14:15.063Z,20.67
2019-03-20T12:16:44.669Z,24.03
2019-03-20T12:19:14.301Z,22.27
2019-03-20T12:21:43.926Z,18.30
2019-03-20T12:24:13.535Z,19.63
2019-03-20T12:26:43.177Z,15.73
2019-03-20T12:29:12.838Z,28.90
2019-03-20T12:31:43.585Z,23.83
2019-03-20T12:34:13.242Z,17.63
2019-03-20T12:36:42.846Z,14.60
2019-03-20T12:39:12.726Z,21.00
2019-03-20T12:41:42.367Z,27.73
2019-03-20T12:44:12.009Z,14.03
2019-03-20T12:46:42.088Z,13.40
2019-03-20T12:49:11.828Z,16.60
2019-03-20T12:51:41.458Z,15.53
2019-03-20T12:54:11.090Z,15.53
2019-03-20T12:56:40.690Z,19.33
2019-03-20T12:59:10.333Z,20.43
2019-03-20T13:01:39.939Z,18.23
2019-03-20T13:04:09.814Z,19.73
2019-03-20T13:06:39.425Z,15.97
2019-03-20T13:09:09.352Z,18.23
2019-03-20T13:11:39.010Z,15.67
2019-03-20T13:14:08.733Z,19.80
2019-03-20T13:16:38.434Z,23.33
2019-03-20T13:19:08.065Z,17.13
2019-03-20T13:21:37.670Z,18.60
2019-03-20T13:24:07.293Z,15.00
2019-03-20T13:26:37.151Z,15.80
2019-03-20T13:29:06.890Z,12.37
2019-03-20T13:31:36.562Z,18.80
2019-03-20T13:34:06.174Z,16.93
2019-03-20T13:36:35.805Z,14.27
2019-03-20T13:39:07.222Z,14.60
2019-03-20T13:41:36.876Z,18.10
2019-03-20T13:44:07.450Z,17.40
2019-03-20T13:46:37.074Z,15.20
2019-03-20T13:49:06.762Z,14.07
2019-03-20T13:51:36.375Z,21.37
2019-03-20T13:54:06.078Z,10.23
2019-03-20T13:56:35.689Z,15.23
2019-03-20T13:59:05.329Z,16.13
2019-03-20T14:01:34.927Z,16.37
2019-03-20T14:04:04.614Z,13.60
2019-03-20T14:06:34.258Z,15.57
2019-03-20T14:09:06.806Z,11.63
2019-03-20T14:11:36.423Z,11.53
2019-03-20T14:14:06.038Z,16.67
2019-03-20T14:16:35.771Z,18.70
2019-03-20T14:19:05.386Z,17.93
2019-03-20T14:21:34.999Z,16.63
2019-03-20T14:24:04.716Z,19.03
2019-03-20T14:26:34.342Z,16.47
2019-03-20T14:29:04.069Z,16.37
2019-03-20T14:31:33.779Z,20.03
2019-03-20T14:34:03.409Z,12.77
2019-03-20T14:36:33.021Z,11.23
2019-03-20T14:39:04.970Z,18.93
2019-03-20T14:41:34.050Z,14.03
2019-03-20T14:44:03.662Z,15.87
2019-03-20T14:46:33.382Z,20.03
2019-03-20T14:49:03.001Z,15.93
2019-03-20T14:51:32.637Z,21.43
2019-03-20T14:54:02.255Z,17.93
2019-03-20T14:56:31.975Z,21.70
2019-03-20T14:59:01.616Z,12.60
2019-03-20T15:01:31.233Z,24.33
2019-03-20T15:04:00.859Z,16.13
2019-03-20T15:06:30.463Z,23.17
2019-03-20T15:09:00.174Z,19.17
2019-03-20T15:11:29.788Z,17.60
2019-03-20T15:13:59.428Z,15.27
2019-03-20T15:16:30.018Z,24.20
2019-03-20T15:18:59.665Z,24.80
2019-03-20T15:21:29.272Z,22.00
2019-03-20T15:23:58.894Z,17.03
2019-03-20T15:26:28.561Z,20.70
2019-03-20T15:28:58.225Z,18.13
2019-03-20T15:31:27.853Z,16.83
2019-03-20T15:33:57.529Z,15.10
2019-03-20T15:36:28.168Z,22.33
2019-03-20T15:38:57.785Z,13.67
2019-03-20T15:41:27.429Z,14.10
2019-03-20T15:44:02.413Z,20.57
2019-03-20T15:46:28.402Z,18.97
2019-03-20T15:48:58.033Z,10.30
2019-03-20T15:51:27.698Z,12.50
2019-03-20T15:53:57.420Z,19.30
2019-03-20T15:56:27.123Z,19.60
2019-03-20T15:58:56.751Z,18.40
2019-03-20T16:01:26.374Z,19.97
2019-03-20T16:03:56.038Z,18.50
2019-03-20T16:06:25.750Z,12.73
2019-03-20T16:08:56.925Z,14.97
2019-03-20T16:11:27.634Z,17.00
2019-03-20T16:13:57.287Z,18.37
2019-03-20T16:16:26.941Z,11.40
2019-03-20T16:18:56.569Z,14.60
2019-03-20T16:21:26.253Z,8.97
2019-03-20T16:23:55.882Z,15.63
2019-03-20T16:26:26.626Z,19.17
2019-03-20T16:28:56.301Z,17.90
2019-03-20T16:31:25.946Z,10.50
2019-03-20T16:33:55.586Z,14.50
2019-03-20T16:36:25.235Z,17.03
2019-03-20T16:38:54.935Z,12.73
2019-03-20T16:41:24.574Z,13.23
2019-03-20T16:43:54.189Z,15.20
2019-03-20T16:46:23.891Z,12.13
2019-03-20T16:48:53.525Z,16.93
2019-03-20T16:51:23.146Z,17.53
2019-03-20T16:53:52.886Z,17.57
2019-03-20T16:56:22.497Z,14.33
2019-03-20T16:58:52.139Z,14.83
2019-03-20T17:01:21.817Z,11.77
2019-03-20T17:03:51.434Z,11.00
2019-03-20T17:06:21.039Z,10.10
2019-03-20T17:08:52.714Z,9.03
2019-03-20T17:11:30.347Z,12.43
2019-03-20T17:13:54.790Z,9.40
2019-03-20T17:16:24.402Z,11.10
2019-03-20T17:18:54.041Z,12.23
2019-03-20T17:21:23.725Z,11.13
2019-03-20T17:23:53.363Z,12.63
2019-03-20T17:26:22.993Z,10.07
2019-03-20T17:28:52.582Z,7.03
2019-03-20T17:31:22.182Z,7.43
2019-03-20T17:33:51.800Z,6.97
2019-03-20T17:36:21.440Z,8.43
2019-03-20T17:38:51.057Z,8.33
2019-03-20T17:41:20.673Z,6.00
2019-03-20T17:43:50.262Z,9.73
2019-03-20T17:46:20.050Z,7.93
2019-03-20T17:48:49.742Z,6.93
2019-03-20T17:51:19.370Z,7.60
2019-03-20T17:53:49.030Z,10.93
2019-03-20T17:56:18.687Z,8.73
2019-03-20T17:58:48.415Z,10.93
2019-03-20T18:01:18.088Z,14.17
2019-03-20T18:03:47.708Z,9.30
2019-03-20T18:06:17.342Z,10.70
2019-03-20T18:08:46.942Z,14.87
2019-03-20T18:11:16.554Z,9.40
2019-03-20T18:13:46.196Z,5.80
2019-03-20T18:16:15.847Z,5.67
2019-03-20T18:18:45.473Z,7.10
2019-03-20T18:21:15.104Z,6.47
2019-03-20T18:23:44.716Z,6.87
2019-03-20T18:26:14.325Z,6.30
2019-03-20T18:28:43.963Z,8.60
2019-03-20T18:31:13.599Z,5.23
2019-03-20T18:33:43.198Z,7.37
2019-03-20T18:36:12.810Z,10.30
2019-03-20T18:38:42.430Z,7.67
2019-03-20T18:41:12.078Z,9.73
2019-03-20T18:43:41.734Z,9.93
2019-03-20T18:46:11.418Z,6.83
2019-03-20T18:48:41.035Z,7.20
2019-03-20T18:51:10.643Z,9.83
2019-03-20T18:53:40.377Z,11.43
2019-03-20T18:56:10.002Z,9.73
2019-03-20T18:58:40.112Z,7.00
2019-03-20T19:01:10.149Z,8.03
2019-03-20T19:03:42.329Z,10.43
2019-03-20T19:06:15.372Z,14.50
2019-03-20T19:08:45.064Z,7.63
2019-03-20T19:11:14.836Z,12.00
2019-03-20T19:13:44.814Z,12.90
2019-03-20T19:16:14.499Z,8.03
2019-03-20T19:18:44.242Z,15.97
2019-03-20T19:21:13.896Z,7.97
2019-03-20T19:24:02.750Z,10.73
2019-03-20T19:26:32.406Z,10.83
2019-03-20T19:29:02.086Z,6.90
2019-03-20T19:31:31.714Z,10.57
2019-03-20T19:34:01.317Z,12.23
2019-03-20T19:36:30.962Z,9.47
2019-03-20T19:39:00.594Z,13.77
2019-03-20T19:41:30.614Z,12.03
2019-03-20T19:44:00.239Z,8.07
2019-03-20T19:46:29.940Z,9.67
2019-03-20T19:48:59.658Z,11.67
2019-03-20T19:51:29.366Z,7.50
2019-03-20T19:53:59.055Z,11.27
2019-03-20T19:56:28.690Z,12.23
2019-03-20T19:58:58.292Z,16.23
2019-03-20T20:01:27.938Z,13.13
2019-03-20T20:03:57.587Z,20.23
2019-03-20T20:06:27.296Z,13.23
2019-03-20T20:08:56.930Z,9.07
2019-03-20T20:11:27.502Z,8.40
2019-03-20T20:13:57.122Z,14.10
2019-03-20T20:16:26.740Z,7.87
2019-03-20T20:18:56.351Z,12.50
2019-03-20T20:21:25.985Z,10.47
2019-03-20T20:23:55.593Z,9.20
2019-03-20T20:26:25.221Z,6.67
2019-03-20T20:28:54.882Z,24.87
2019-03-20T20:31:24.487Z,10.70
2019-03-20T20:33:54.144Z,12.50
2019-03-20T20:36:23.725Z,11.33
2019-03-20T20:38:53.350Z,16.37
2019-03-20T20:41:23.389Z,14.23
2019-03-20T20:43:53.022Z,15.10
2019-03-20T20:46:22.670Z,22.23
2019-03-20T20:48:52.289Z,17.70
2019-03-20T20:51:21.933Z,14.53
2019-03-20T20:53:51.590Z,17.87
2019-03-20T20:56:22.688Z,18.43
2019-03-20T20:58:52.404Z,11.93
2019-03-20T21:01:22.035Z,10.80
2019-03-20T21:03:51.643Z,14.10
2019-03-20T21:06:21.274Z,14.43
2019-03-20T21:08:51.020Z,18.63
2019-03-20T21:11:20.738Z,14.10
2019-03-20T21:13:50.362Z,15.33
2019-03-20T21:16:20.530Z,21.93
2019-03-20T21:19:37.954Z,26.40
2019-03-20T21:22:44.605Z,15.83
2019-03-20T21:25:16.194Z,16.63
2019-03-20T21:28:30.373Z,20.87
2019-03-20T21:31:19.696Z,16.70
2019-03-20T21:34:33.969Z,18.87
2019-03-20T21:37:27.433Z,25.73
2019-03-20T21:39:57.694Z,27.93
2019-03-20T21:43:18.247Z,37.10
2019-03-20T21:46:12.851Z,28.30
2019-03-20T21:48:42.995Z,27.10
2019-03-20T21:51:19.451Z,28.80
2019-03-20T21:54:43.259Z,29.20
2019-03-20T21:57:45.857Z,22.40
2019-03-20T22:01:10.222Z,30.97
2019-03-20T22:03:40.371Z,25.83
2019-03-20T22:06:57.917Z,30.53
2019-03-20T22:10:20.677Z,29.57
2019-03-20T22:13:00.601Z,26.20
2019-03-20T22:15:44.151Z,27.37
2019-03-20T22:18:41.177Z,26.07
2019-03-20T22:21:28.106Z,26.03
2019-03-20T22:24:23.510Z,28.40
2019-03-20T22:27:13.943Z,25.27
2019-03-20T22:29:44.175Z,29.40
2019-03-20T22:32:50.990Z,25.03
2019-03-20T22:35:35.389Z,32.30
2019-03-20T22:38:09.521Z,30.67
2019-03-20T22:41:36.591Z,28.93
2019-03-20T22:44:07.295Z,32.83
2019-03-20T22:47:11.808Z,27.80
2019-03-20T22:50:14.195Z,30.40
2019-03-20T22:53:20.489Z,27.20
2019-03-20T22:56:50.573Z,31.37
2019-03-20T22:59:20.754Z,29.50
2019-03-20T23:02:30.369Z,29.20
2019-03-20T23:05:01.022Z,40.37
2019-03-20T23:07:32.260Z,23.73
2019-03-20T23:10:02.494Z,24.83
2019-03-20T23:12:34.106Z,21.33
2019-03-20T23:15:05.168Z,17.33
2019-03-20T23:17:35.339Z,21.10
2019-03-20T23:20:07.414Z,19.23
2019-03-20T23:22:37.548Z,21.67
2019-03-20T23:25:08.458Z,15.10
2019-03-20T23:27:38.607Z,18.17
2019-03-20T23:30:13.257Z,21.53
2019-03-20T23:32:43.396Z,16.87
2019-03-20T23:35:13.550Z,19.13
2019-03-20T23:37:43.718Z,12.70
2019-03-20T23:40:14.858Z,20.87
2019-03-20T23:42:45.911Z,16.77
2019-03-20T23:45:17.034Z,17.43
2019-03-20T23:47:57.736Z,15.40
2019-03-20T23:50:27.905Z,15.17
2019-03-20T23:52:58.119Z,17.57
2019-03-20T23:55:28.306Z,17.13
2019-03-20T23:57:58.534Z,15.83
